Time,TemperatureF,DewpointF,PressureIn,WindDirection,WindDirectionDegrees,WindSpeedMPH,WindSpeedGustMPH,Humidity,HourlyPrecipIn,Conditions,Clouds,dailyrainin,SoftwareType,DateUTC
2013-05-18 00:01:00,45.1,44.3,30.20,SE,135,0.0,2.0,97,0.00,,,0.00,Weather View 32 v70,2013-05-18 04:01:00,
2013-05-18 00:06:00,44.8,43.7,30.20,SE,135,0.0,2.0,96,0.00,,,0.00,Weather View 32 v70,2013-05-18 04:06:00,
2013-05-18 00:11:00,44.5,43.4,30.20,SE,135,0.0,2.0,96,0.00,,,0.00,Weather View 32 v70,2013-05-18 04:11:00,
2013-05-18 00:16:00,44.6,43.5,30.20,SE,135,0.0,2.0,96,0.00,,,0.00,Weather View 32 v70,2013-05-18 04:16:00,
2013-05-18 00:21:00,44.6,43.5,30.20,SE,135,0.0,1.0,96,0.00,,,0.00,Weather View 32 v70,2013-05-18 04:21:00,
2013-05-18 00:26:00,44.3,43.2,30.20,SE,135,0.0,0.0,96,0.00,,,0.00,Weather View 32 v70,2013-05-18 04:26:00,
2013-05-18 00:31:00,44.2,43.1,30.20,SE,135,0.0,0.0,96,0.00,,,0.00,Weather View 32 v70,2013-05-18 04:31:00,
2013-05-18 00:36:00,44.1,43.0,30.20,SE,135,0.0,0.0,96,0.00,,,0.00,Weather View 32 v70,2013-05-18 04:36:00,
2013-05-18 00:41:00,43.9,42.8,30.20,SE,135,0.0,0.0,96,0.00,,,0.00,Weather View 32 v70,2013-05-18 04:41:00,
2013-05-18 00:46:00,43.6,42.5,30.20,SE,135,0.0,0.0,96,0.00,,,0.00,Weather View 32 v70,2013-05-18 04:46:00,
2013-05-18 00:51:00,43.4,42.3,30.20,SE,135,1.0,0.0,96,0.00,,,0.00,Weather View 32 v70,2013-05-18 04:51:00,
2013-05-18 00:56:00,43.4,42.3,30.20,SE,135,0.0,2.0,96,0.00,,,0.00,Weather View 32 v70,2013-05-18 04:56:00,
2013-05-18 01:01:00,43.4,42.3,30.20,SE,135,0.0,2.0,96,0.00,,,0.00,Weather View 32 v70,2013-05-18 05:01:00,
2013-05-18 01:06:00,43.3,42.2,30.20,SE,135,0.0,2.0,96,0.00,,,0.00,Weather View 32 v70,2013-05-18 05:06:00,
2013-05-18 01:11:00,43.1,42.0,30.20,SE,135,0.0,2.0,96,0.00,,,0.00,Weather View 32 v70,2013-05-18 05:11:00,
2013-05-18 01:16:00,42.9,41.8,30.20,SE,135,1.0,2.0,96,0.00,,,0.00,Weather View 32 v70,2013-05-18 05:16:00,
2013-05-18 01:21:00,42.8,41.7,30.20,SE,135,1.0,2.0,96,0.00,,,0.00,Weather View 32 v70,2013-05-18 05:21:00,
2013-05-18 01:26:00,42.9,41.8,30.20,SE,135,0.0,2.0,96,0.00,,,0.00,Weather View 32 v70,2013-05-18 05:26:00,
2013-05-18 01:31:00,42.9,41.8,30.19,SE,135,0.0,2.0,96,0.00,,,0.00,Weather View 32 v70,2013-05-18 05:31:00,
2013-05-18 01:36:00,42.8,41.7,30.19,SE,135,0.0,2.0,96,0.00,,,0.00,Weather View 32 v70,2013-05-18 05:36:00,
2013-05-18 01:41:00,42.8,41.7,30.19,SE,135,0.0,2.0,96,0.00,,,0.00,Weather View 32 v70,2013-05-18 05:41:00,
2013-05-18 01:46:00,42.5,41.4,30.19,SE,135,0.0,2.0,96,0.00,,,0.00,Weather View 32 v70,2013-05-18 05:46:00,
2013-05-18 01:51:00,42.5,41.4,30.19,SE,135,0.0,2.0,96,0.00,,,0.00,Weather View 32 v70,2013-05-18 05:51:00,
2013-05-18 01:56:00,42.1,41.0,30.19,SE,135,0.0,2.0,96,0.00,,,0.00,Weather View 32 v70,2013-05-18 05:56:00,
2013-05-18 02:01:00,41.9,40.8,30.19,SE,135,1.0,2.0,96,0.00,,,0.00,Weather View 32 v70,2013-05-18 06:01:00,
2013-05-18 02:06:00,42.1,41.0,30.19,SE,135,0.0,2.0,96,0.00,,,0.00,Weather View 32 v70,2013-05-18 06:06:00,
2013-05-18 02:11:00,41.9,40.8,30.19,SE,135,0.0,2.0,96,0.00,,,0.00,Weather View 32 v70,2013-05-18 06:11:00,
2013-05-18 02:16:00,41.9,40.8,30.19,SE,135,0.0,2.0,96,0.00,,,0.00,Weather View 32 v70,2013-05-18 06:16:00,
2013-05-18 02:21:00,42.1,41.0,30.19,SE,135,0.0,1.0,96,0.00,,,0.00,Weather View 32 v70,2013-05-18 06:21:00,
2013-05-18 02:26:00,42.1,41.0,30.19,SE,135,0.0,1.0,96,0.00,,,0.00,Weather View 32 v70,2013-05-18 06:26:00,
2013-05-18 02:31:00,41.9,40.8,30.19,SE,135,0.0,1.0,96,0.00,,,0.00,Weather View 32 v70,2013-05-18 06:31:00,
2013-05-18 02:36:00,41.9,40.8,30.19,SE,135,0.0,1.0,96,0.00,,,0.00,Weather View 32 v70,2013-05-18 06:36:00,
2013-05-18 02:41:00,42.2,41.1,30.19,SE,135,2.0,2.0,96,0.00,,,0.00,Weather View 32 v70,2013-05-18 06:41:00,
2013-05-18 02:46:00,41.9,40.8,30.19,SE,135,0.0,2.0,96,0.00,,,0.00,Weather View 32 v70,2013-05-18 06:46:00,
2013-05-18 02:51:00,42.5,41.4,30.19,SE,135,1.0,2.0,96,0.00,,,0.00,Weather View 32 v70,2013-05-18 06:51:00,
2013-05-18 02:56:00,42.5,41.4,30.19,SE,135,2.0,2.0,96,0.00,,,0.00,Weather View 32 v70,2013-05-18 06:56:00,
2013-05-18 03:01:00,42.5,41.4,30.19,SE,135,1.0,2.0,96,0.00,,,0.00,Weather View 32 v70,2013-05-18 07:01:00,
2013-05-18 03:06:00,42.6,41.5,30.19,SE,135,2.0,2.0,96,0.00,,,0.00,Weather View 32 v70,2013-05-18 07:06:00,
2013-05-18 03:11:00,42.7,41.6,30.19,SE,135,1.0,2.0,96,0.00,,,0.00,Weather View 32 v70,2013-05-18 07:11:00,
2013-05-18 03:16:00,42.6,41.5,30.19,SE,135,1.0,2.0,96,0.00,,,0.00,Weather View 32 v70,2013-05-18 07:16:00,
2013-05-18 03:21:00,42.2,41.1,30.19,SE,135,0.0,2.0,96,0.00,,,0.00,Weather View 32 v70,2013-05-18 07:21:00,
2013-05-18 03:26:00,42.1,41.0,30.19,SE,135,0.0,2.0,96,0.00,,,0.00,Weather View 32 v70,2013-05-18 07:26:00,
2013-05-18 03:31:00,41.9,40.8,30.20,SE,135,0.0,2.0,96,0.00,,,0.00,Weather View 32 v70,2013-05-18 07:31:00,
2013-05-18 03:36:00,42.0,40.9,30.20,SE,135,0.0,2.0,96,0.00,,,0.00,Weather View 32 v70,2013-05-18 07:36:00,
2013-05-18 03:41:00,42.1,41.0,30.20,SE,135,0.0,2.0,96,0.00,,,0.00,Weather View 32 v70,2013-05-18 07:41:00,
2013-05-18 03:46:00,42.0,40.9,30.20,SE,135,1.0,2.0,96,0.00,,,0.00,Weather View 32 v70,2013-05-18 07:46:00,
2013-05-18 03:51:00,41.9,40.8,30.20,SE,135,1.0,2.0,96,0.00,,,0.00,Weather View 32 v70,2013-05-18 07:51:00,
2013-05-18 03:56:00,41.7,40.6,30.20,SE,135,2.0,2.0,96,0.00,,,0.00,Weather View 32 v70,2013-05-18 07:56:00,
2013-05-18 04:01:00,41.7,40.6,30.20,SE,135,1.0,2.0,96,0.00,,,0.00,Weather View 32 v70,2013-05-18 08:01:00,
2013-05-18 04:06:00,41.8,40.7,30.20,SE,135,0.0,2.0,96,0.00,,,0.00,Weather View 32 v70,2013-05-18 08:06:00,
2013-05-18 04:11:00,41.6,40.5,30.21,SE,135,0.0,2.0,96,0.00,,,0.00,Weather View 32 v70,2013-05-18 08:11:00,
2013-05-18 04:16:00,41.5,40.4,30.21,SE,135,2.0,2.0,96,0.00,,,0.00,Weather View 32 v70,2013-05-18 08:16:00,
2013-05-18 04:21:00,41.4,40.3,30.21,SE,135,2.0,2.0,96,0.00,,,0.00,Weather View 32 v70,2013-05-18 08:21:00,
2013-05-18 04:26:00,41.8,40.7,30.21,SE,135,1.0,2.0,96,0.00,,,0.00,Weather View 32 v70,2013-05-18 08:26:00,
2013-05-18 04:31:00,41.8,40.7,30.21,SE,135,1.0,2.0,96,0.00,,,0.00,Weather View 32 v70,2013-05-18 08:31:00,
2013-05-18 04:37:00,41.9,40.8,30.21,SE,135,0.0,2.0,96,0.00,,,0.00,Weather View 32 v70,2013-05-18 08:37:00,
2013-05-18 04:42:00,41.8,40.7,30.21,SE,135,1.0,2.0,96,0.00,,,0.00,Weather View 32 v70,2013-05-18 08:42:00,
2013-05-18 04:47:00,41.8,40.7,30.21,SE,135,0.0,2.0,96,0.00,,,0.00,Weather View 32 v70,2013-05-18 08:47:00,
2013-05-18 04:52:00,41.8,40.7,30.21,SE,135,1.0,2.0,96,0.00,,,0.00,Weather View 32 v70,2013-05-18 08:52:00,
2013-05-18 04:57:00,41.5,40.4,30.21,SE,135,2.0,2.0,96,0.00,,,0.00,Weather View 32 v70,2013-05-18 08:57:00,
2013-05-18 05:02:00,41.7,40.6,30.21,SE,135,2.0,2.0,96,0.00,,,0.00,Weather View 32 v70,2013-05-18 09:02:00,
2013-05-18 05:07:00,41.5,40.4,30.21,SE,135,0.0,2.0,96,0.00,,,0.00,Weather View 32 v70,2013-05-18 09:07:00,
2013-05-18 05:12:00,41.6,40.5,30.21,SE,135,1.0,2.0,96,0.00,,,0.00,Weather View 32 v70,2013-05-18 09:12:00,
2013-05-18 05:17:00,41.4,40.3,30.21,SE,135,0.0,2.0,96,0.00,,,0.00,Weather View 32 v70,2013-05-18 09:17:00,
2013-05-18 05:22:00,41.2,40.1,30.21,SE,135,0.0,2.0,96,0.00,,,0.00,Weather View 32 v70,2013-05-18 09:22:00,
2013-05-18 05:27:00,40.9,39.8,30.22,SE,135,0.0,2.0,96,0.00,,,0.00,Weather View 32 v70,2013-05-18 09:27:00,
2013-05-18 05:32:00,40.9,39.8,30.22,SE,135,0.0,2.0,96,0.00,,,0.00,Weather View 32 v70,2013-05-18 09:32:00,
2013-05-18 05:37:00,40.9,39.8,30.22,SE,135,1.0,2.0,96,0.00,,,0.00,Weather View 32 v70,2013-05-18 09:37:00,
2013-05-18 05:42:00,40.9,39.8,30.22,SE,135,0.0,2.0,96,0.00,,,0.00,Weather View 32 v70,2013-05-18 09:42:00,
2013-05-18 05:47:00,40.9,39.8,30.22,SE,135,0.0,2.0,96,0.00,,,0.00,Weather View 32 v70,2013-05-18 09:47:00,
2013-05-18 05:52:00,41.1,40.0,30.23,SE,135,0.0,2.0,96,0.00,,,0.00,Weather View 32 v70,2013-05-18 09:52:00,
2013-05-18 05:57:00,41.6,40.5,30.23,SE,135,0.0,2.0,96,0.00,,,0.00,Weather View 32 v70,2013-05-18 09:57:00,
2013-05-18 06:02:00,42.3,41.2,30.23,SE,135,2.0,2.0,96,0.00,,,0.00,Weather View 32 v70,2013-05-18 10:02:00,
2013-05-18 06:07:00,42.8,41.7,30.24,SE,135,0.0,2.0,96,0.00,,,0.00,Weather View 32 v70,2013-05-18 10:07:00,
2013-05-18 06:12:00,43.4,42.3,30.24,SE,135,0.0,2.0,96,0.00,,,0.00,Weather View 32 v70,2013-05-18 10:12:00,
2013-05-18 06:17:00,44.3,43.2,30.25,SE,135,0.0,2.0,96,0.00,,,0.00,Weather View 32 v70,2013-05-18 10:17:00,
2013-05-18 06:22:00,45.1,44.3,30.25,SE,135,0.0,2.0,97,0.00,,,0.00,Weather View 32 v70,2013-05-18 10:22:00,
2013-05-18 06:27:00,45.9,45.1,30.25,SE,135,0.0,2.0,97,0.00,,,0.00,Weather View 32 v70,2013-05-18 10:27:00,
2013-05-18 06:32:00,46.6,45.8,30.25,ESE,112,0.0,2.0,97,0.00,,,0.00,Weather View 32 v70,2013-05-18 10:32:00,
2013-05-18 06:37:00,47.5,46.7,30.26,ESE,112,0.0,2.0,97,0.00,,,0.00,Weather View 32 v70,2013-05-18 10:37:00,
2013-05-18 06:42:00,48.2,47.4,30.26,NNE,22,0.0,2.0,97,0.00,,,0.00,Weather View 32 v70,2013-05-18 10:42:00,
2013-05-18 06:47:00,49.0,45.3,30.27,NNE,22,1.0,2.0,87,0.00,,,0.00,Weather View 32 v70,2013-05-18 10:47:00,
2013-05-18 06:52:00,49.6,46.5,30.27,NNE,22,1.0,2.0,89,0.00,,,0.00,Weather View 32 v70,2013-05-18 10:52:00,
2013-05-18 06:57:00,50.5,46.2,30.27,NNE,22,0.0,2.0,85,0.00,,,0.00,Weather View 32 v70,2013-05-18 10:57:00,
2013-05-18 07:02:00,50.8,44.8,30.27,NNE,22,2.0,2.0,80,0.00,,,0.00,Weather View 32 v70,2013-05-18 11:02:00,
2013-05-18 07:07:00,50.9,43.9,30.28,NNE,22,0.0,2.0,77,0.00,,,0.00,Weather View 32 v70,2013-05-18 11:07:00,
2013-05-18 07:12:00,51.8,48.0,30.28,North,360,1.0,2.0,87,0.00,,,0.00,Weather View 32 v70,2013-05-18 11:12:00,
2013-05-18 07:17:00,52.3,49.7,30.28,North,360,1.0,2.0,91,0.00,,,0.00,Weather View 32 v70,2013-05-18 11:17:00,
2013-05-18 07:22:00,52.5,49.9,30.28,North,360,0.0,2.0,91,0.00,,,0.00,Weather View 32 v70,2013-05-18 11:22:00,
2013-05-18 07:27:00,52.9,50.6,30.29,North,360,0.0,2.0,92,0.00,,,0.00,Weather View 32 v70,2013-05-18 11:27:00,
2013-05-18 07:32:00,53.1,50.5,30.29,North,360,0.0,2.0,91,0.00,,,0.00,Weather View 32 v70,2013-05-18 11:32:00,
2013-05-18 07:37:00,53.5,51.8,30.29,North,360,0.0,2.0,94,0.00,,,0.00,Weather View 32 v70,2013-05-18 11:37:00,
2013-05-18 07:42:00,53.9,50.4,30.29,North,360,0.0,2.0,88,0.00,,,0.00,Weather View 32 v70,2013-05-18 11:42:00,
2013-05-18 07:47:00,53.9,51.9,30.29,North,360,0.0,2.0,93,0.00,,,0.00,Weather View 32 v70,2013-05-18 11:47:00,
2013-05-18 07:52:00,53.9,52.5,30.29,North,360,0.0,2.0,95,0.00,,,0.00,Weather View 32 v70,2013-05-18 11:52:00,
2013-05-18 07:57:00,53.8,52.7,30.29,North,360,0.0,2.0,96,0.00,,,0.00,Weather View 32 v70,2013-05-18 11:57:00,
2013-05-18 08:02:00,54.2,53.1,30.29,North,360,1.0,2.0,96,0.00,,,0.00,Weather View 32 v70,2013-05-18 12:02:00,
2013-05-18 08:07:00,54.5,49.8,30.29,North,360,0.0,2.0,84,0.00,,,0.00,Weather View 32 v70,2013-05-18 12:07:00,
2013-05-18 08:12:00,55.2,50.8,30.29,North,360,1.0,2.0,85,0.00,,,0.00,Weather View 32 v70,2013-05-18 12:12:00,
2013-05-18 08:17:00,55.9,49.1,30.30,North,360,0.0,2.0,78,0.00,,,0.00,Weather View 32 v70,2013-05-18 12:17:00,
2013-05-18 08:22:00,56.9,44.0,30.30,SSE,157,0.0,4.0,62,0.00,,,0.00,Weather View 32 v70,2013-05-18 12:22:00,
2013-05-18 08:27:00,57.7,43.4,30.31,WNW,292,2.0,4.0,59,0.00,,,0.00,Weather View 32 v70,2013-05-18 12:27:00,
2013-05-18 08:32:00,58.7,43.9,30.31,NW,315,1.0,4.0,58,0.00,,,0.00,Weather View 32 v70,2013-05-18 12:32:00,
2013-05-18 08:37:00,59.4,42.2,30.31,NW,315,2.0,4.0,53,0.00,,,0.00,Weather View 32 v70,2013-05-18 12:37:00,
2013-05-18 08:42:00,59.9,43.2,30.32,NW,315,1.0,5.0,54,0.00,,,0.00,Weather View 32 v70,2013-05-18 12:42:00,
2013-05-18 08:47:00,60.9,45.5,30.32,WNW,292,0.0,5.0,57,0.00,,,0.00,Weather View 32 v70,2013-05-18 12:47:00,
2013-05-18 08:52:00,61.5,43.7,30.32,North,360,0.0,5.0,52,0.00,,,0.00,Weather View 32 v70,2013-05-18 12:52:00,
2013-05-18 08:57:00,62.1,43.7,30.33,ESE,112,1.0,5.0,51,0.00,,,0.00,Weather View 32 v70,2013-05-18 12:57:00,
2013-05-18 09:02:00,62.8,46.4,30.33,ESE,112,0.0,5.0,55,0.00,,,0.00,Weather View 32 v70,2013-05-18 13:02:00,
2013-05-18 09:07:00,62.6,45.7,30.33,WNW,292,1.0,5.0,54,0.00,,,0.00,Weather View 32 v70,2013-05-18 13:07:00,
2013-05-18 09:12:00,63.3,45.8,30.33,NNW,337,2.0,5.0,53,0.00,,,0.00,Weather View 32 v70,2013-05-18 13:12:00,
2013-05-18 09:17:00,63.1,46.1,30.33,West,270,2.0,5.0,54,0.00,,,0.00,Weather View 32 v70,2013-05-18 13:17:00,
2013-05-18 09:22:00,62.5,45.1,30.33,NW,315,1.0,6.0,53,0.00,,,0.00,Weather View 32 v70,2013-05-18 13:22:00,
2013-05-18 09:27:00,62.6,45.2,30.33,NNE,22,1.0,6.0,53,0.00,,,0.00,Weather View 32 v70,2013-05-18 13:27:00,
2013-05-18 09:32:00,62.7,43.2,30.33,WNW,292,2.0,6.0,49,0.00,,,0.00,Weather View 32 v70,2013-05-18 13:32:00,
2013-05-18 09:37:00,62.4,46.0,30.33,WNW,292,2.0,6.0,55,0.00,,,0.00,Weather View 32 v70,2013-05-18 13:37:00,
2013-05-18 09:42:00,62.3,41.2,30.33,NNW,337,1.0,6.0,46,0.00,,,0.00,Weather View 32 v70,2013-05-18 13:42:00,
2013-05-18 09:47:00,63.1,45.1,30.33,NW,315,2.0,6.0,52,0.00,,,0.00,Weather View 32 v70,2013-05-18 13:47:00,
2013-05-18 09:52:00,62.9,45.0,30.33,NNW,337,2.0,7.0,52,0.00,,,0.00,Weather View 32 v70,2013-05-18 13:52:00,
2013-05-18 09:57:00,63.9,44.3,30.33,NNW,337,0.0,7.0,49,0.00,,,0.00,Weather View 32 v70,2013-05-18 13:57:00,
2013-05-18 10:02:00,64.0,45.5,30.33,NNW,337,0.0,7.0,51,0.00,,,0.00,Weather View 32 v70,2013-05-18 14:02:00,
2013-05-18 10:07:00,63.9,46.4,30.33,SSW,202,1.0,7.0,53,0.00,,,0.00,Weather View 32 v70,2013-05-18 14:07:00,
2013-05-18 10:12:00,63.6,42.4,30.32,WNW,292,2.0,7.0,46,0.00,,,0.00,Weather View 32 v70,2013-05-18 14:12:00,
2013-05-18 10:17:00,62.9,44.5,30.33,NW,315,2.0,7.0,51,0.00,,,0.00,Weather View 32 v70,2013-05-18 14:17:00,
2013-05-18 10:22:00,63.3,38.5,30.33,SSW,202,2.0,7.0,40,0.00,,,0.00,Weather View 32 v70,2013-05-18 14:22:00,
2013-05-18 10:27:00,64.2,40.6,30.33,West,270,1.0,7.0,42,0.00,,,0.00,Weather View 32 v70,2013-05-18 14:27:00,
2013-05-18 10:32:00,64.4,43.7,30.33,NW,315,1.0,7.0,47,0.00,,,0.00,Weather View 32 v70,2013-05-18 14:32:00,
2013-05-18 10:37:00,64.1,42.8,30.33,WNW,292,1.0,7.0,46,0.00,,,0.00,Weather View 32 v70,2013-05-18 14:37:00,
2013-05-18 10:42:00,64.3,44.7,30.33,NW,315,2.0,7.0,49,0.00,,,0.00,Weather View 32 v70,2013-05-18 14:42:00,
2013-05-18 10:47:00,64.7,45.1,30.33,NNE,22,1.0,7.0,49,0.00,,,0.00,Weather View 32 v70,2013-05-18 14:47:00,
2013-05-18 10:52:00,65.3,44.5,30.33,North,360,1.0,6.0,47,0.00,,,0.00,Weather View 32 v70,2013-05-18 14:52:00,
2013-05-18 10:57:00,64.5,40.2,30.33,ESE,112,1.0,6.0,41,0.00,,,0.00,Weather View 32 v70,2013-05-18 14:57:00,
2013-05-18 11:02:00,63.9,45.4,30.33,NNW,337,0.0,6.0,51,0.00,,,0.00,Weather View 32 v70,2013-05-18 15:02:00,
2013-05-18 11:07:00,63.8,45.3,30.32,WNW,292,1.0,6.0,51,0.00,,,0.00,Weather View 32 v70,2013-05-18 15:07:00,
2013-05-18 11:12:00,64.4,44.8,30.33,NNE,22,0.0,6.0,49,0.00,,,0.00,Weather View 32 v70,2013-05-18 15:12:00,
2013-05-18 11:17:00,64.8,42.9,30.33,WNW,292,0.0,6.0,45,0.00,,,0.00,Weather View 32 v70,2013-05-18 15:17:00,
2013-05-18 11:22:00,65.1,38.1,30.33,West,270,1.0,6.0,37,0.00,,,0.00,Weather View 32 v70,2013-05-18 15:22:00,
2013-05-18 11:27:00,64.4,44.2,30.32,WNW,292,2.0,6.0,48,0.00,,,0.00,Weather View 32 v70,2013-05-18 15:27:00,
2013-05-18 11:32:00,64.1,37.9,30.32,South,180,1.0,6.0,38,0.00,,,0.00,Weather View 32 v70,2013-05-18 15:32:00,
2013-05-18 11:37:00,64.8,46.2,30.32,NW,315,1.0,6.0,51,0.00,,,0.00,Weather View 32 v70,2013-05-18 15:37:00,
2013-05-18 11:42:00,64.4,43.1,30.32,NW,315,1.0,6.0,46,0.00,,,0.00,Weather View 32 v70,2013-05-18 15:42:00,
2013-05-18 11:47:00,63.7,45.7,30.31,NW,315,2.0,6.0,52,0.00,,,0.00,Weather View 32 v70,2013-05-18 15:47:00,
2013-05-18 11:52:00,63.0,45.1,30.31,WNW,292,2.0,6.0,52,0.00,,,0.00,Weather View 32 v70,2013-05-18 15:52:00,
2013-05-18 11:57:00,63.3,45.8,30.31,SSE,157,0.0,6.0,53,0.00,,,0.00,Weather View 32 v70,2013-05-18 15:57:00,
2013-05-18 12:02:00,64.4,36.8,30.31,NNW,337,2.0,6.0,36,0.00,,,0.00,Weather View 32 v70,2013-05-18 16:02:00,
2013-05-18 12:07:00,65.4,42.9,30.31,NNW,337,2.0,6.0,44,0.00,,,0.00,Weather View 32 v70,2013-05-18 16:07:00,
2013-05-18 12:12:00,65.3,45.1,30.31,South,180,0.0,7.0,48,0.00,,,0.00,Weather View 32 v70,2013-05-18 16:12:00,
2013-05-18 12:17:00,64.9,39.9,30.31,WSW,247,1.0,7.0,40,0.00,,,0.00,Weather View 32 v70,2013-05-18 16:17:00,
2013-05-18 12:22:00,64.9,45.2,30.30,NW,315,3.0,7.0,49,0.00,,,0.00,Weather View 32 v70,2013-05-18 16:22:00,
2013-05-18 12:27:00,65.1,45.4,30.30,NW,315,4.0,7.0,49,0.00,,,0.00,Weather View 32 v70,2013-05-18 16:27:00,
2013-05-18 12:32:00,64.5,42.6,30.30,NW,315,1.0,7.0,45,0.00,,,0.00,Weather View 32 v70,2013-05-18 16:32:00,
2013-05-18 12:37:00,64.6,44.4,30.31,NW,315,1.0,7.0,48,0.00,,,0.00,Weather View 32 v70,2013-05-18 16:37:00,
2013-05-18 12:43:00,65.2,42.7,30.30,West,270,2.0,7.0,44,0.00,,,0.00,Weather View 32 v70,2013-05-18 16:43:00,
2013-05-18 12:48:00,65.9,45.6,30.30,NNW,337,1.0,7.0,48,0.00,,,0.00,Weather View 32 v70,2013-05-18 16:48:00,
2013-05-18 12:53:00,66.1,45.2,30.30,East,90,4.0,7.0,47,0.00,,,0.00,Weather View 32 v70,2013-05-18 16:53:00,
2013-05-18 12:58:00,65.6,39.9,30.30,NW,315,2.0,7.0,39,0.00,,,0.00,Weather View 32 v70,2013-05-18 16:58:00,
2013-05-18 13:03:00,64.9,47.8,30.30,WNW,292,1.0,7.0,54,0.00,,,0.00,Weather View 32 v70,2013-05-18 17:03:00,
2013-05-18 13:08:00,64.8,39.9,30.30,NW,315,0.0,7.0,40,0.00,,,0.00,Weather View 32 v70,2013-05-18 17:08:00,
2013-05-18 13:13:00,64.8,46.7,30.29,WNW,292,4.0,7.0,52,0.00,,,0.00,Weather View 32 v70,2013-05-18 17:13:00,
2013-05-18 13:18:00,64.7,40.4,30.29,West,270,1.0,7.0,41,0.00,,,0.00,Weather View 32 v70,2013-05-18 17:18:00,
2013-05-18 13:23:00,64.5,46.4,30.29,WNW,292,1.0,7.0,52,0.00,,,0.00,Weather View 32 v70,2013-05-18 17:23:00,
2013-05-18 13:28:00,64.7,48.1,30.29,North,360,4.0,7.0,55,0.00,,,0.00,Weather View 32 v70,2013-05-18 17:28:00,
2013-05-18 13:33:00,65.4,41.7,30.29,NNE,22,1.0,7.0,42,0.00,,,0.00,Weather View 32 v70,2013-05-18 17:33:00,
2013-05-18 13:38:00,66.9,45.4,30.29,SW,225,1.0,7.0,46,0.00,,,0.00,Weather View 32 v70,2013-05-18 17:38:00,
2013-05-18 13:43:00,66.8,39.6,30.29,North,360,0.0,6.0,37,0.00,,,0.00,Weather View 32 v70,2013-05-18 17:43:00,
2013-05-18 13:48:00,67.1,40.6,30.29,WNW,292,2.0,6.0,38,0.00,,,0.00,Weather View 32 v70,2013-05-18 17:48:00,
2013-05-18 13:53:00,66.3,45.4,30.29,NNW,337,1.0,6.0,47,0.00,,,0.00,Weather View 32 v70,2013-05-18 17:53:00,
2013-05-18 13:58:00,66.5,42.0,30.29,NW,315,4.0,6.0,41,0.00,,,0.00,Weather View 32 v70,2013-05-18 17:58:00,
2013-05-18 14:03:00,66.5,45.6,30.29,West,270,2.0,6.0,47,0.00,,,0.00,Weather View 32 v70,2013-05-18 18:03:00,
2013-05-18 14:08:00,65.9,45.0,30.29,West,270,1.0,6.0,47,0.00,,,0.00,Weather View 32 v70,2013-05-18 18:08:00,
2013-05-18 14:13:00,66.0,45.1,30.28,West,270,1.0,5.0,47,0.00,,,0.00,Weather View 32 v70,2013-05-18 18:13:00,
2013-05-18 14:18:00,66.4,44.9,30.28,NW,315,1.0,5.0,46,0.00,,,0.00,Weather View 32 v70,2013-05-18 18:18:00,
2013-05-18 14:23:00,66.9,47.1,30.28,SSE,157,1.0,4.0,49,0.00,,,0.00,Weather View 32 v70,2013-05-18 18:23:00,
2013-05-18 14:28:00,66.7,42.8,30.28,NW,315,2.0,4.0,42,0.00,,,0.00,Weather View 32 v70,2013-05-18 18:28:00,
2013-05-18 14:33:00,66.4,44.4,30.28,NNE,22,0.0,5.0,45,0.00,,,0.00,Weather View 32 v70,2013-05-18 18:33:00,
2013-05-18 14:38:00,67.1,39.9,30.28,NW,315,2.0,5.0,37,0.00,,,0.00,Weather View 32 v70,2013-05-18 18:38:00,
2013-05-18 14:43:00,67.4,40.2,30.27,NW,315,2.0,5.0,37,0.00,,,0.00,Weather View 32 v70,2013-05-18 18:43:00,
2013-05-18 14:48:00,67.1,46.7,30.28,NNW,337,2.0,5.0,48,0.00,,,0.00,Weather View 32 v70,2013-05-18 18:48:00,
2013-05-18 14:53:00,66.6,40.8,30.27,NNE,22,1.0,6.0,39,0.00,,,0.00,Weather View 32 v70,2013-05-18 18:53:00,
2013-05-18 14:58:00,66.7,40.9,30.27,NNE,22,0.0,6.0,39,0.00,,,0.00,Weather View 32 v70,2013-05-18 18:58:00,
2013-05-18 15:03:00,66.9,42.4,30.27,SE,135,1.0,6.0,41,0.00,,,0.00,Weather View 32 v70,2013-05-18 19:03:00,
2013-05-18 15:08:00,66.4,41.3,30.27,East,90,0.0,6.0,40,0.00,,,0.00,Weather View 32 v70,2013-05-18 19:08:00,
2013-05-18 15:13:00,66.6,42.1,30.27,SSE,157,0.0,6.0,41,0.00,,,0.00,Weather View 32 v70,2013-05-18 19:13:00,
2013-05-18 15:18:00,66.9,42.4,30.27,WNW,292,1.0,6.0,41,0.00,,,0.00,Weather View 32 v70,2013-05-18 19:18:00,
2013-05-18 15:23:00,67.1,40.6,30.27,NW,315,0.0,6.0,38,0.00,,,0.00,Weather View 32 v70,2013-05-18 19:23:00,
2013-05-18 15:28:00,67.2,46.8,30.27,NW,315,0.0,6.0,48,0.00,,,0.00,Weather View 32 v70,2013-05-18 19:28:00,
2013-05-18 15:33:00,66.9,46.0,30.27,NNW,337,0.0,6.0,47,0.00,,,0.00,Weather View 32 v70,2013-05-18 19:33:00,
2013-05-18 15:38:00,66.8,44.1,30.27,NNW,337,0.0,6.0,44,0.00,,,0.00,Weather View 32 v70,2013-05-18 19:38:00,
2013-05-18 15:43:00,66.9,44.2,30.27,NNW,337,0.0,6.0,44,0.00,,,0.00,Weather View 32 v70,2013-05-18 19:43:00,
2013-05-18 15:48:00,66.9,45.4,30.27,NNW,337,2.0,6.0,46,0.00,,,0.00,Weather View 32 v70,2013-05-18 19:48:00,
2013-05-18 15:53:00,66.4,43.8,30.27,ESE,112,2.0,4.0,44,0.00,,,0.00,Weather View 32 v70,2013-05-18 19:53:00,
2013-05-18 15:58:00,66.1,45.2,30.26,North,360,2.0,4.0,47,0.00,,,0.00,Weather View 32 v70,2013-05-18 19:58:00,
2013-05-18 16:03:00,66.3,43.7,30.26,North,360,1.0,4.0,44,0.00,,,0.00,Weather View 32 v70,2013-05-18 20:03:00,
2013-05-18 16:08:00,66.5,41.4,30.26,North,360,1.0,4.0,40,0.00,,,0.00,Weather View 32 v70,2013-05-18 20:08:00,
2013-05-18 16:13:00,67.3,43.4,30.26,NW,315,0.0,4.0,42,0.00,,,0.00,Weather View 32 v70,2013-05-18 20:13:00,
2013-05-18 16:18:00,67.4,45.3,30.26,WSW,247,0.0,4.0,45,0.00,,,0.00,Weather View 32 v70,2013-05-18 20:18:00,
2013-05-18 16:23:00,67.1,43.8,30.26,WNW,292,0.0,4.0,43,0.00,,,0.00,Weather View 32 v70,2013-05-18 20:23:00,
2013-05-18 16:28:00,66.7,48.0,30.26,SSE,157,0.0,4.0,51,0.00,,,0.00,Weather View 32 v70,2013-05-18 20:28:00,
2013-05-18 16:33:00,66.4,46.6,30.26,North,360,2.0,4.0,49,0.00,,,0.00,Weather View 32 v70,2013-05-18 20:33:00,
2013-05-18 16:38:00,67.3,41.4,30.26,NNW,337,2.0,4.0,39,0.00,,,0.00,Weather View 32 v70,2013-05-18 20:38:00,
2013-05-18 16:43:00,67.3,45.2,30.26,WSW,247,0.0,6.0,45,0.00,,,0.00,Weather View 32 v70,2013-05-18 20:43:00,
2013-05-18 16:48:00,66.8,47.0,30.26,NW,315,2.0,6.0,49,0.00,,,0.00,Weather View 32 v70,2013-05-18 20:48:00,
2013-05-18 16:53:00,66.4,47.1,30.26,NNE,22,0.0,6.0,50,0.00,,,0.00,Weather View 32 v70,2013-05-18 20:53:00,
2013-05-18 16:58:00,66.1,44.7,30.26,NNW,337,0.0,6.0,46,0.00,,,0.00,Weather View 32 v70,2013-05-18 20:58:00,
2013-05-18 17:03:00,66.7,42.8,30.26,East,90,2.0,6.0,42,0.00,,,0.00,Weather View 32 v70,2013-05-18 21:03:00,
2013-05-18 17:08:00,67.1,46.7,30.26,WSW,247,1.0,6.0,48,0.00,,,0.00,Weather View 32 v70,2013-05-18 21:08:00,
2013-05-18 17:13:00,67.3,42.7,30.26,SSE,157,2.0,6.0,41,0.00,,,0.00,Weather View 32 v70,2013-05-18 21:13:00,
2013-05-18 17:18:00,67.0,42.5,30.26,NE,45,2.0,6.0,41,0.00,,,0.00,Weather View 32 v70,2013-05-18 21:18:00,
2013-05-18 17:23:00,66.9,46.5,30.26,SSW,202,1.0,6.0,48,0.00,,,0.00,Weather View 32 v70,2013-05-18 21:23:00,
2013-05-18 17:28:00,67.0,42.5,30.26,NNE,22,0.0,6.0,41,0.00,,,0.00,Weather View 32 v70,2013-05-18 21:28:00,
2013-05-18 17:33:00,67.4,43.5,30.25,NW,315,0.0,6.0,42,0.00,,,0.00,Weather View 32 v70,2013-05-18 21:33:00,
2013-05-18 17:38:00,67.7,48.9,30.26,SE,135,2.0,6.0,51,0.00,,,0.00,Weather View 32 v70,2013-05-18 21:38:00,
2013-05-18 17:43:00,67.5,48.2,30.26,NNE,22,0.0,6.0,50,0.00,,,0.00,Weather View 32 v70,2013-05-18 21:43:00,
2013-05-18 17:48:00,67.2,47.9,30.26,West,270,2.0,6.0,50,0.00,,,0.00,Weather View 32 v70,2013-05-18 21:48:00,
2013-05-18 17:53:00,66.9,43.6,30.26,SE,135,2.0,6.0,43,0.00,,,0.00,Weather View 32 v70,2013-05-18 21:53:00,
2013-05-18 17:58:00,66.7,46.3,30.25,North,360,0.0,6.0,48,0.00,,,0.00,Weather View 32 v70,2013-05-18 21:58:00,
2013-05-18 18:03:00,66.4,47.7,30.25,SE,135,2.0,6.0,51,0.00,,,0.00,Weather View 32 v70,2013-05-18 22:03:00,
2013-05-18 18:08:00,65.9,48.7,30.25,NNW,337,1.0,6.0,54,0.00,,,0.00,Weather View 32 v70,2013-05-18 22:08:00,
2013-05-18 18:13:00,65.7,48.6,30.25,NNE,22,2.0,4.0,54,0.00,,,0.00,Weather View 32 v70,2013-05-18 22:13:00,
2013-05-18 18:18:00,65.4,48.3,30.26,NNE,22,0.0,4.0,54,0.00,,,0.00,Weather View 32 v70,2013-05-18 22:18:00,
2013-05-18 18:23:00,64.9,44.1,30.25,NW,315,0.0,4.0,47,0.00,,,0.00,Weather View 32 v70,2013-05-18 22:23:00,
2013-05-18 18:28:00,64.5,43.2,30.25,SE,135,0.0,4.0,46,0.00,,,0.00,Weather View 32 v70,2013-05-18 22:28:00,
2013-05-18 18:33:00,64.3,47.3,30.25,NW,315,0.0,4.0,54,0.00,,,0.00,Weather View 32 v70,2013-05-18 22:33:00,
2013-05-18 18:38:00,63.9,49.3,30.25,ENE,67,0.0,4.0,59,0.00,,,0.00,Weather View 32 v70,2013-05-18 22:38:00,
2013-05-18 18:43:00,63.6,44.6,30.25,NNW,337,0.0,4.0,50,0.00,,,0.00,Weather View 32 v70,2013-05-18 22:43:00,
2013-05-18 18:48:00,63.3,43.8,30.25,SE,135,0.0,4.0,49,0.00,,,0.00,Weather View 32 v70,2013-05-18 22:48:00,
2013-05-18 18:53:00,63.2,45.2,30.25,NE,45,0.0,4.0,52,0.00,,,0.00,Weather View 32 v70,2013-05-18 22:53:00,
2013-05-18 18:58:00,63.1,44.6,30.25,WSW,247,1.0,4.0,51,0.00,,,0.00,Weather View 32 v70,2013-05-18 22:58:00,
2013-05-18 19:03:00,62.9,45.5,30.25,SW,225,0.0,4.0,53,0.00,,,0.00,Weather View 32 v70,2013-05-18 23:03:00,
2013-05-18 19:08:00,62.6,44.7,30.25,WNW,292,0.0,4.0,52,0.00,,,0.00,Weather View 32 v70,2013-05-18 23:08:00,
2013-05-18 19:13:00,62.1,48.0,30.25,SE,135,0.0,4.0,60,0.00,,,0.00,Weather View 32 v70,2013-05-18 23:13:00,
2013-05-18 19:18:00,61.7,44.8,30.25,SE,135,0.0,4.0,54,0.00,,,0.00,Weather View 32 v70,2013-05-18 23:18:00,
2013-05-18 19:23:00,61.1,44.3,30.25,SE,135,0.0,4.0,54,0.00,,,0.00,Weather View 32 v70,2013-05-18 23:23:00,
2013-05-18 19:28:00,60.7,45.3,30.25,SE,135,0.0,4.0,57,0.00,,,0.00,Weather View 32 v70,2013-05-18 23:28:00,
2013-05-18 19:33:00,60.2,45.8,30.25,SE,135,0.0,4.0,59,0.00,,,0.00,Weather View 32 v70,2013-05-18 23:33:00,
2013-05-18 19:38:00,59.7,44.9,30.25,SE,135,0.0,4.0,58,0.00,,,0.00,Weather View 32 v70,2013-05-18 23:38:00,
2013-05-18 19:43:00,59.7,45.3,30.25,ESE,112,2.0,4.0,59,0.00,,,0.00,Weather View 32 v70,2013-05-18 23:43:00,
2013-05-18 19:48:00,59.2,44.8,30.25,ENE,67,1.0,4.0,59,0.00,,,0.00,Weather View 32 v70,2013-05-18 23:48:00,
2013-05-18 19:53:00,59.2,44.8,30.25,NNE,22,2.0,3.0,59,0.00,,,0.00,Weather View 32 v70,2013-05-18 23:53:00,
2013-05-18 19:58:00,58.9,46.3,30.25,SE,135,0.0,4.0,63,0.00,,,0.00,Weather View 32 v70,2013-05-18 23:58:00,
2013-05-18 20:03:00,58.6,44.3,30.25,NE,45,2.0,4.0,59,0.00,,,0.00,Weather View 32 v70,2013-05-19 00:03:00,
2013-05-18 20:08:00,58.2,45.2,30.25,ENE,67,2.0,4.0,62,0.00,,,0.00,Weather View 32 v70,2013-05-19 00:08:00,
2013-05-18 20:13:00,57.7,44.7,30.25,NE,45,2.0,4.0,62,0.00,,,0.00,Weather View 32 v70,2013-05-19 00:13:00,
2013-05-18 20:18:00,57.2,46.7,30.25,East,90,2.0,4.0,68,0.00,,,0.00,Weather View 32 v70,2013-05-19 00:18:00,
2013-05-18 20:23:00,56.9,46.8,30.25,East,90,2.0,4.0,69,0.00,,,0.00,Weather View 32 v70,2013-05-19 00:23:00,
2013-05-18 20:28:00,56.5,45.3,30.25,East,90,0.0,4.0,66,0.00,,,0.00,Weather View 32 v70,2013-05-19 00:28:00,
2013-05-18 20:33:00,56.1,46.4,30.25,SE,135,0.0,4.0,70,0.00,,,0.00,Weather View 32 v70,2013-05-19 00:33:00,
2013-05-18 20:38:00,55.6,46.7,30.25,SSE,157,0.0,4.0,72,0.00,,,0.00,Weather View 32 v70,2013-05-19 00:38:00,
2013-05-18 20:43:00,55.0,46.5,30.25,SSE,157,1.0,4.0,73,0.00,,,0.00,Weather View 32 v70,2013-05-19 00:43:00,
2013-05-18 20:48:00,54.6,48.2,30.25,East,90,1.0,4.0,79,0.00,,,0.00,Weather View 32 v70,2013-05-19 00:48:00,
2013-05-18 20:53:00,54.2,48.2,30.25,SE,135,2.0,4.0,80,0.00,,,0.00,Weather View 32 v70,2013-05-19 00:53:00,
2013-05-18 20:59:00,54.1,48.4,30.25,ESE,112,1.0,4.0,81,0.00,,,0.00,Weather View 32 v70,2013-05-19 00:59:00,
2013-05-18 21:04:00,53.9,47.9,30.25,East,90,0.0,2.0,80,0.00,,,0.00,Weather View 32 v70,2013-05-19 01:04:00,
2013-05-18 21:09:00,53.6,49.5,30.25,ESE,112,2.0,2.0,86,0.00,,,0.00,Weather View 32 v70,2013-05-19 01:09:00,
2013-05-18 21:14:00,53.1,48.4,30.25,ESE,112,1.0,2.0,84,0.00,,,0.00,Weather View 32 v70,2013-05-19 01:14:00,
2013-05-18 21:19:00,52.8,48.1,30.25,ESE,112,0.0,2.0,84,0.00,,,0.00,Weather View 32 v70,2013-05-19 01:19:00,
2013-05-18 21:24:00,52.6,47.6,30.25,ESE,112,0.0,2.0,83,0.00,,,0.00,Weather View 32 v70,2013-05-19 01:24:00,
2013-05-18 21:29:00,52.3,49.1,30.25,South,180,2.0,2.0,89,0.00,,,0.00,Weather View 32 v70,2013-05-19 01:29:00,
2013-05-18 21:34:00,52.2,49.3,30.25,South,180,2.0,2.0,90,0.00,,,0.00,Weather View 32 v70,2013-05-19 01:34:00,
2013-05-18 21:39:00,52.2,49.6,30.25,SSE,157,0.0,2.0,91,0.00,,,0.00,Weather View 32 v70,2013-05-19 01:39:00,
2013-05-18 21:44:00,52.1,49.8,30.26,SSE,157,1.0,2.0,92,0.00,,,0.00,Weather View 32 v70,2013-05-19 01:44:00,
2013-05-18 21:49:00,51.9,47.2,30.25,SSE,157,2.0,2.0,84,0.00,,,0.00,Weather View 32 v70,2013-05-19 01:49:00,
2013-05-18 21:54:00,51.9,48.8,30.25,SSE,157,2.0,2.0,89,0.00,,,0.00,Weather View 32 v70,2013-05-19 01:54:00,
2013-05-18 21:59:00,52.1,49.5,30.25,SSE,157,2.0,2.0,91,0.00,,,0.00,Weather View 32 v70,2013-05-19 01:59:00,
2013-05-18 22:04:00,51.9,46.9,30.26,SSE,157,2.0,2.0,83,0.00,,,0.00,Weather View 32 v70,2013-05-19 02:04:00,
2013-05-18 22:09:00,51.8,47.1,30.26,SSE,157,1.0,2.0,84,0.00,,,0.00,Weather View 32 v70,2013-05-19 02:09:00,
2013-05-18 22:14:00,51.6,46.6,30.25,SSE,157,1.0,2.0,83,0.00,,,0.00,Weather View 32 v70,2013-05-19 02:14:00,
2013-05-18 22:19:00,51.4,48.9,30.25,SSE,157,0.0,2.0,91,0.00,,,0.00,Weather View 32 v70,2013-05-19 02:19:00,
2013-05-18 22:24:00,50.9,50.1,30.25,SSE,157,0.0,2.0,97,0.00,,,0.00,Weather View 32 v70,2013-05-19 02:24:00,
2013-05-18 22:29:00,50.6,48.1,30.25,SSE,157,0.0,2.0,91,0.00,,,0.00,Weather View 32 v70,2013-05-19 02:29:00,
2013-05-18 22:34:00,50.4,49.6,30.25,SSE,157,2.0,2.0,97,0.00,,,0.00,Weather View 32 v70,2013-05-19 02:34:00,
2013-05-18 22:39:00,50.4,49.6,30.25,SSE,157,0.0,2.0,97,0.00,,,0.00,Weather View 32 v70,2013-05-19 02:39:00,
2013-05-18 22:44:00,50.2,49.4,30.25,SSE,157,0.0,2.0,97,0.00,,,0.00,Weather View 32 v70,2013-05-19 02:44:00,
2013-05-18 22:49:00,49.9,49.1,30.25,SSE,157,1.0,2.0,97,0.00,,,0.00,Weather View 32 v70,2013-05-19 02:49:00,
2013-05-18 22:54:00,49.8,49.0,30.25,SSE,157,0.0,2.0,97,0.00,,,0.00,Weather View 32 v70,2013-05-19 02:54:00,
2013-05-18 22:59:00,49.6,48.8,30.25,SSE,157,1.0,2.0,97,0.00,,,0.00,Weather View 32 v70,2013-05-19 02:59:00,
2013-05-18 23:04:00,49.5,48.7,30.25,SSE,157,0.0,2.0,97,0.00,,,0.00,Weather View 32 v70,2013-05-19 03:04:00,
2013-05-18 23:09:00,49.3,48.5,30.25,SSE,157,0.0,2.0,97,0.00,,,0.00,Weather View 32 v70,2013-05-19 03:09:00,
2013-05-18 23:14:00,49.2,48.4,30.25,SSE,157,2.0,2.0,97,0.00,,,0.00,Weather View 32 v70,2013-05-19 03:14:00,
2013-05-18 23:19:00,49.3,48.5,30.25,SSE,157,1.0,2.0,97,0.00,,,0.00,Weather View 32 v70,2013-05-19 03:19:00,
2013-05-18 23:24:00,49.2,48.4,30.25,SSE,157,0.0,2.0,97,0.00,,,0.00,Weather View 32 v70,2013-05-19 03:24:00,
2013-05-18 23:29:00,49.2,48.4,30.25,SSE,157,0.0,2.0,97,0.00,,,0.00,Weather View 32 v70,2013-05-19 03:29:00,
2013-05-18 23:34:00,49.0,48.2,30.25,SSE,157,0.0,2.0,97,0.00,,,0.00,Weather View 32 v70,2013-05-19 03:34:00,
2013-05-18 23:39:00,48.9,48.1,30.25,SSE,157,0.0,2.0,97,0.00,,,0.00,Weather View 32 v70,2013-05-19 03:39:00,
2013-05-18 23:44:00,49.1,48.3,30.25,SSE,157,1.0,2.0,97,0.00,,,0.00,Weather View 32 v70,2013-05-19 03:44:00,
2013-05-18 23:49:00,48.9,48.1,30.25,SSE,157,0.0,2.0,97,0.00,,,0.00,Weather View 32 v70,2013-05-19 03:49:00,
2013-05-18 23:54:00,48.8,48.0,30.25,SSE,157,0.0,2.0,97,0.00,,,0.00,Weather View 32 v70,2013-05-19 03:54:00,
2013-05-18 23:59:00,48.7,47.9,30.25,SSE,157,1.0,2.0,97,0.00,,,0.00,Weather View 32 v70,2013-05-19 03:59:00,